createdAt,value
2019-06-07T00:01:27.917Z,21.12
2019-06-07T00:03:58.810Z,21.20
2019-06-07T00:06:29.907Z,21.22
2019-06-07T00:09:00.880Z,21.32
2019-06-07T00:11:31.987Z,21.36
2019-06-07T00:14:02.664Z,21.34
2019-06-07T00:16:34.053Z,21.31
2019-06-07T00:19:04.745Z,21.29
2019-06-07T00:22:13.434Z,21.16
2019-06-07T00:24:08.891Z,21.03
2019-06-07T00:26:57.758Z,21.01
2019-06-07T00:29:18.553Z,21.13
2019-06-07T00:31:47.966Z,21.15
2019-06-07T00:34:20.024Z,21.21
2019-06-07T00:36:51.912Z,21.29
2019-06-07T00:39:25.567Z,21.40
2019-06-07T00:41:55.318Z,21.50
2019-06-07T00:44:26.038Z,21.58
2019-06-07T00:46:56.877Z,21.63
2019-06-07T00:49:40.654Z,21.67
2019-06-07T00:52:01.902Z,21.72
2019-06-07T00:54:32.857Z,21.70
2019-06-07T00:57:03.682Z,21.74
2019-06-07T00:59:34.305Z,21.65
2019-06-07T01:02:05.566Z,21.55
2019-06-07T01:04:36.777Z,21.30
2019-06-07T01:07:07.440Z,21.20
2019-06-07T01:09:38.521Z,21.07
2019-06-07T01:12:10.058Z,21.00
2019-06-07T01:14:40.857Z,20.93
2019-06-07T01:17:39.854Z,20.87
2019-06-07T01:19:59.241Z,20.85
2019-06-07T01:22:30.221Z,20.86
2019-06-07T01:25:00.832Z,20.83
2019-06-07T01:27:31.681Z,20.78
2019-06-07T01:30:02.393Z,20.73
2019-06-07T01:32:33.337Z,20.64
2019-06-07T01:35:04.163Z,20.67
2019-06-07T01:37:34.983Z,20.64
2019-06-07T01:40:06.279Z,20.64
2019-06-07T01:42:37.201Z,20.61
2019-06-07T01:45:08.895Z,20.51
2019-06-07T01:47:40.330Z,20.53
2019-06-07T01:50:11.810Z,20.56
2019-06-07T01:52:42.511Z,20.67
2019-06-07T01:55:13.765Z,20.72
2019-06-07T01:57:48.369Z,20.84
2019-06-07T02:00:17.492Z,20.97
2019-06-07T02:02:48.338Z,20.96
2019-06-07T02:05:21.561Z,20.96
2019-06-07T02:07:52.710Z,20.94
2019-06-07T02:10:27.451Z,20.94
2019-06-07T02:12:56.297Z,20.97
2019-06-07T02:15:31.198Z,20.86
2019-06-07T02:17:59.988Z,20.84
2019-06-07T02:20:34.264Z,20.84
2019-06-07T02:23:03.580Z,20.90
2019-06-07T02:25:42.554Z,21.00
2019-06-07T02:28:31.954Z,21.15
2019-06-07T02:30:58.004Z,21.28
2019-06-07T02:33:13.053Z,21.39
2019-06-07T02:35:43.481Z,21.51
2019-06-07T02:38:14.282Z,21.59
2019-06-07T02:40:45.011Z,21.62
2019-06-07T02:43:15.956Z,21.61
2019-06-07T02:45:46.844Z,21.63
2019-06-07T02:48:17.472Z,21.67
2019-06-07T02:50:48.673Z,21.73
2019-06-07T02:53:19.546Z,21.75
2019-06-07T02:56:33.798Z,21.85
2019-06-07T02:58:26.146Z,21.94
2019-06-07T03:01:06.493Z,22.04
2019-06-07T03:03:28.904Z,22.18
2019-06-07T03:06:01.414Z,22.26
2019-06-07T03:08:36.605Z,22.51
2019-06-07T03:11:06.895Z,22.87
2019-06-07T03:13:41.196Z,23.49
2019-06-07T03:16:12.552Z,24.28
2019-06-07T03:19:08.450Z,25.13
2019-06-07T03:21:43.645Z,25.93
2019-06-07T03:24:14.832Z,26.71
2019-06-07T03:27:32.292Z,27.03
2019-06-07T03:29:18.079Z,27.55
2019-06-07T03:31:50.748Z,27.95
2019-06-07T03:34:22.204Z,28.39
2019-06-07T03:36:55.629Z,28.96
2019-06-07T03:39:28.419Z,29.00
2019-06-07T03:42:08.528Z,29.34
2019-06-07T03:44:41.607Z,29.79
2019-06-07T03:47:11.086Z,29.94
2019-06-07T03:49:42.770Z,30.32
2019-06-07T03:52:13.731Z,30.50
2019-06-07T03:54:44.388Z,30.92
2019-06-07T03:57:15.046Z,31.18
2019-06-07T03:59:45.832Z,31.14
2019-06-07T04:02:16.442Z,31.75
2019-06-07T04:04:48.304Z,31.90
2019-06-07T04:07:19.150Z,31.73
2019-06-07T04:09:49.819Z,31.84
2019-06-07T04:12:20.549Z,32.10
2019-06-07T04:14:52.391Z,32.03
2019-06-07T04:17:23.043Z,32.37
2019-06-07T04:19:53.534Z,32.23
2019-06-07T04:22:24.604Z,32.15
2019-06-07T04:24:55.356Z,33.38
2019-06-07T04:27:26.256Z,33.17
2019-06-07T04:30:07.520Z,33.06
2019-06-07T04:32:31.282Z,33.49
2019-06-07T04:35:02.231Z,33.89
2019-06-07T04:37:35.680Z,34.44
2019-06-07T04:40:07.026Z,35.40
2019-06-07T04:42:44.520Z,36.31
2019-06-07T04:45:32.416Z,36.30
2019-06-07T04:47:45.593Z,36.05
2019-06-07T04:50:16.408Z,36.66
2019-06-07T04:52:47.132Z,37.20
2019-06-07T04:55:18.691Z,36.69
2019-06-07T04:57:49.508Z,37.59
2019-06-07T05:00:48.619Z,38.16
2019-06-07T05:02:56.106Z,38.39
2019-06-07T05:05:26.844Z,38.85
2019-06-07T05:07:58.026Z,38.37
2019-06-07T05:10:30.671Z,39.18
2019-06-07T05:13:01.527Z,39.74
2019-06-07T05:15:34.181Z,40.27
2019-06-07T05:18:05.432Z,40.65
2019-06-07T05:20:37.971Z,41.29
2019-06-07T05:23:08.741Z,41.34
2019-06-07T05:25:44.462Z,41.06
2019-06-07T05:28:12.267Z,42.19
2019-06-07T05:31:03.920Z,43.12
2019-06-07T05:33:16.088Z,43.62
2019-06-07T05:35:47.054Z,44.14
2019-06-07T05:38:17.803Z,44.91
2019-06-07T05:40:49.132Z,45.55
2019-06-07T05:43:27.186Z,46.05
2019-06-07T05:45:57.815Z,46.33
2019-06-07T05:48:28.468Z,45.58
2019-06-07T05:50:59.767Z,45.63
2019-06-07T05:53:31.692Z,44.39
2019-06-07T05:56:03.283Z,42.43
2019-06-07T05:58:42.758Z,43.48
2019-06-07T06:01:42.328Z,41.59
2019-06-07T06:03:48.517Z,42.71
2019-06-07T06:06:19.616Z,42.13
2019-06-07T06:09:14.019Z,41.47
2019-06-07T06:11:58.646Z,40.93
2019-06-07T06:14:17.723Z,40.54
2019-06-07T06:16:50.058Z,41.04
2019-06-07T06:19:20.773Z,39.72
2019-06-07T06:21:51.774Z,39.98
2019-06-07T06:24:22.684Z,41.65
2019-06-07T06:27:00.307Z,42.84
2019-06-07T06:29:26.076Z,42.45
2019-06-07T06:32:40.349Z,41.39
2019-06-07T06:34:29.160Z,42.31
2019-06-07T06:36:59.701Z,42.41
2019-06-07T06:39:30.550Z,43.97
2019-06-07T06:42:03.821Z,44.67
2019-06-07T06:44:33.876Z,45.22
2019-06-07T06:47:04.805Z,45.34
2019-06-07T06:49:35.549Z,44.54
2019-06-07T06:52:07.316Z,44.20
2019-06-07T06:54:44.076Z,43.18
2019-06-07T06:57:19.562Z,45.18
2019-06-07T06:59:45.401Z,44.40
2019-06-07T07:02:16.046Z,45.09
2019-06-07T07:04:48.675Z,45.70
2019-06-07T07:07:20.061Z,45.93
2019-06-07T07:09:58.140Z,46.09
2019-06-07T07:12:43.058Z,46.54
2019-06-07T07:15:17.985Z,46.56
2019-06-07T07:18:03.681Z,46.74
2019-06-07T07:20:22.638Z,42.28
2019-06-07T07:22:56.894Z,41.75
2019-06-07T07:25:25.866Z,43.73
2019-06-07T07:27:56.840Z,44.68
2019-06-07T07:30:44.900Z,45.08
2019-06-07T07:33:16.080Z,44.70
2019-06-07T07:36:14.042Z,44.24
2019-06-07T07:38:20.295Z,44.37
2019-06-07T07:41:12.247Z,44.40
2019-06-07T07:43:24.017Z,44.15
2019-06-07T07:45:59.020Z,43.04
2019-06-07T07:48:27.475Z,42.96
2019-06-07T07:51:00.863Z,40.99
2019-06-07T07:53:47.733Z,40.44
2019-06-07T07:56:03.340Z,40.39
2019-06-07T07:58:34.113Z,38.85
2019-06-07T08:01:10.734Z,37.54
2019-06-07T08:03:37.875Z,34.84
2019-06-07T08:06:08.731Z,36.04
2019-06-07T08:08:40.814Z,37.12
2019-06-07T08:11:12.997Z,37.06
2019-06-07T08:13:43.759Z,36.13
2019-06-07T08:16:18.356Z,35.21
2019-06-07T08:18:51.560Z,33.11
2019-06-07T08:21:26.233Z,31.96
2019-06-07T08:23:59.897Z,31.92
2019-06-07T08:26:26.264Z,30.95
2019-06-07T08:29:02.341Z,30.93
2019-06-07T08:31:30.829Z,30.49
2019-06-07T08:34:01.728Z,30.36
2019-06-07T08:36:41.863Z,30.36
2019-06-07T08:39:07.720Z,30.21
2019-06-07T08:41:53.461Z,29.26
2019-06-07T08:44:23.166Z,29.03
2019-06-07T08:46:44.123Z,28.97
2019-06-07T08:49:15.802Z,29.11
2019-06-07T08:51:46.466Z,29.65
2019-06-07T08:54:23.015Z,29.88
2019-06-07T08:56:53.696Z,30.15
2019-06-07T08:59:22.203Z,30.02
2019-06-07T09:01:57.969Z,29.57
2019-06-07T09:04:26.470Z,29.18
2019-06-07T09:07:14.831Z,28.02
2019-06-07T09:09:30.404Z,27.17
2019-06-07T09:12:08.067Z,26.71
2019-06-07T09:14:33.791Z,25.89
2019-06-07T09:17:11.806Z,25.37
2019-06-07T09:19:38.563Z,24.94
2019-06-07T09:22:11.457Z,24.67
2019-06-07T09:24:42.290Z,24.44
2019-06-07T09:27:13.320Z,24.49
2019-06-07T09:29:45.889Z,24.57
2019-06-07T09:32:18.611Z,24.79
2019-06-07T09:34:49.616Z,25.07
2019-06-07T09:38:03.528Z,25.55
2019-06-07T09:39:53.359Z,26.01
2019-06-07T09:42:24.297Z,26.55
2019-06-07T09:44:55.037Z,26.99
2019-06-07T09:47:32.390Z,27.29
2019-06-07T09:50:04.071Z,27.59
2019-06-07T09:52:31.168Z,27.89
2019-06-07T09:55:12.013Z,28.20
2019-06-07T09:57:35.614Z,28.27
2019-06-07T10:00:37.118Z,28.08
2019-06-07T10:02:42.655Z,28.29
2019-06-07T10:05:14.558Z,28.06
2019-06-07T10:08:02.386Z,28.04
2019-06-07T10:12:51.463Z,28.01
2019-06-07T10:15:22.416Z,28.07
2019-06-07T10:17:53.059Z,27.84
2019-06-07T10:20:23.917Z,27.64
2019-06-07T10:22:54.700Z,27.75
2019-06-07T10:25:28.872Z,27.80
2019-06-07T10:28:00.130Z,27.58
2019-06-07T10:30:30.933Z,27.47
2019-06-07T10:33:02.215Z,27.59
2019-06-07T10:35:33.195Z,27.49
2019-06-07T10:38:04.602Z,27.58
2019-06-07T10:40:35.580Z,27.61
2019-06-07T10:43:07.235Z,27.71
2019-06-07T10:45:38.133Z,27.66
2019-06-07T10:48:09.982Z,27.85
2019-06-07T10:50:40.659Z,27.72
2019-06-07T10:53:12.556Z,27.69
2019-06-07T10:55:43.344Z,27.26
2019-06-07T10:58:15.353Z,27.54
2019-06-07T11:00:46.146Z,27.49
2019-06-07T11:03:18.277Z,27.37
2019-06-07T11:05:49.158Z,26.92
2019-06-07T11:08:20.150Z,26.89
2019-06-07T11:10:51.140Z,27.00
2019-06-07T11:13:21.925Z,27.22
2019-06-07T11:15:52.713Z,27.41
2019-06-07T11:18:23.281Z,27.39
2019-06-07T11:20:54.089Z,27.60
2019-06-07T11:23:24.752Z,27.70
2019-06-07T11:25:55.669Z,27.51
2019-06-07T11:28:26.324Z,27.68
2019-06-07T11:30:57.141Z,27.30
2019-06-07T11:33:27.965Z,27.28
2019-06-07T11:35:58.726Z,27.23
2019-06-07T11:38:29.443Z,27.10
2019-06-07T11:41:00.274Z,27.08
2019-06-07T11:43:30.815Z,27.16
2019-06-07T11:46:01.770Z,27.42
2019-06-07T11:48:32.797Z,27.61
2019-06-07T11:51:03.548Z,27.56
2019-06-07T11:53:34.078Z,27.71
2019-06-07T11:56:05.239Z,27.77
2019-06-07T11:58:36.193Z,27.93
2019-06-07T12:01:07.563Z,28.12
2019-06-07T12:03:40.122Z,28.11
2019-06-07T12:06:12.023Z,28.05
2019-06-07T12:08:42.797Z,27.94
2019-06-07T12:11:14.401Z,27.59
2019-06-07T12:13:45.203Z,27.57
2019-06-07T12:16:17.389Z,27.41
2019-06-07T12:18:49.488Z,27.03
2019-06-07T12:21:20.539Z,26.88
2019-06-07T12:23:52.206Z,26.99
2019-06-07T12:26:22.895Z,26.88
2019-06-07T12:28:53.867Z,26.87
2019-06-07T12:31:24.737Z,26.44
2019-06-07T12:33:55.593Z,26.11
2019-06-07T12:36:26.441Z,26.17
2019-06-07T12:38:57.380Z,26.12
2019-06-07T12:41:29.553Z,25.99
2019-06-07T12:44:00.440Z,25.96
2019-06-07T12:46:32.479Z,26.18
2019-06-07T12:49:03.206Z,26.24
2019-06-07T12:51:33.969Z,26.30
2019-06-07T12:54:05.201Z,26.34
2019-06-07T12:56:35.998Z,26.40
2019-06-07T12:59:06.878Z,26.41
2019-06-07T13:01:37.993Z,26.50
2019-06-07T13:04:10.291Z,26.40
2019-06-07T13:06:41.162Z,26.31
2019-06-07T13:09:12.292Z,26.35
2019-06-07T13:11:43.334Z,26.43
2019-06-07T13:14:14.211Z,26.30
2019-06-07T13:16:44.818Z,26.43
2019-06-07T13:19:16.349Z,26.49
2019-06-07T13:21:47.699Z,26.49
2019-06-07T13:24:19.021Z,26.58
2019-06-07T13:26:51.267Z,26.70
2019-06-07T13:29:22.618Z,26.88
2019-06-07T13:31:53.576Z,26.87
2019-06-07T13:34:25.785Z,26.75
2019-06-07T13:36:56.498Z,26.78
2019-06-07T13:39:29.662Z,26.68
2019-06-07T13:41:59.903Z,26.84
2019-06-07T13:44:31.233Z,26.84
2019-06-07T13:47:05.421Z,26.73
2019-06-07T13:49:36.083Z,26.82
2019-06-07T13:52:06.839Z,26.74
2019-06-07T13:54:37.656Z,26.86
2019-06-07T13:57:08.344Z,26.84
2019-06-07T13:59:39.024Z,26.81
2019-06-07T14:02:09.941Z,26.82
2019-06-07T14:04:40.976Z,26.67
2019-06-07T14:07:11.759Z,26.58
2019-06-07T14:09:42.623Z,26.57
2019-06-07T14:12:13.772Z,26.56
2019-06-07T14:14:45.970Z,26.36
2019-06-07T14:17:16.857Z,26.43
2019-06-07T14:19:47.935Z,26.42
2019-06-07T14:22:18.864Z,26.45
2019-06-07T14:24:49.530Z,26.50
2019-06-07T14:27:21.397Z,26.49
2019-06-07T14:29:52.246Z,26.47
2019-06-07T14:32:24.928Z,26.30
2019-06-07T14:34:55.850Z,26.17
2019-06-07T14:37:26.884Z,26.25
2019-06-07T14:39:57.787Z,26.27
2019-06-07T14:42:29.240Z,26.36
2019-06-07T14:45:05.081Z,26.32
2019-06-07T14:47:34.049Z,26.35
2019-06-07T14:50:07.318Z,26.35
2019-06-07T14:52:38.027Z,26.48
2019-06-07T14:55:09.728Z,26.52
2019-06-07T14:57:41.257Z,26.51
2019-06-07T15:00:14.051Z,26.63
2019-06-07T15:02:45.469Z,26.86
2019-06-07T15:05:18.991Z,27.07
2019-06-07T15:07:49.979Z,27.12
2019-06-07T15:10:21.275Z,27.22
2019-06-07T15:12:52.074Z,27.36
2019-06-07T15:15:23.324Z,27.36
2019-06-07T15:17:54.224Z,27.36
2019-06-07T15:20:25.078Z,27.22
2019-06-07T15:22:56.186Z,27.27
2019-06-07T15:25:27.146Z,26.77
2019-06-07T15:27:57.782Z,26.80
2019-06-07T15:30:29.590Z,26.81
2019-06-07T15:33:00.441Z,26.60
2019-06-07T15:35:32.166Z,26.34
2019-06-07T15:38:03.034Z,26.17
2019-06-07T15:40:35.282Z,25.93
2019-06-07T15:43:06.289Z,25.91
2019-06-07T15:45:37.816Z,25.74
2019-06-07T15:48:08.373Z,25.76
2019-06-07T15:50:40.438Z,25.89
2019-06-07T15:53:11.538Z,25.97
2019-06-07T15:55:45.702Z,25.97
2019-06-07T15:58:16.998Z,26.01
2019-06-07T16:00:50.124Z,26.04
2019-06-07T16:03:21.059Z,26.05
2019-06-07T16:05:51.815Z,25.95
2019-06-07T16:08:22.833Z,25.97
2019-06-07T16:10:53.661Z,25.96
2019-06-07T16:13:24.515Z,26.01
2019-06-07T16:15:55.787Z,26.02
2019-06-07T16:18:26.671Z,26.09
2019-06-07T16:20:57.399Z,26.12
2019-06-07T16:23:28.465Z,26.17
2019-06-07T16:25:59.432Z,26.14
2019-06-07T16:28:30.167Z,25.89
2019-06-07T16:31:00.843Z,25.88
2019-06-07T16:33:34.639Z,25.81
2019-06-07T16:36:05.174Z,25.69
2019-06-07T16:38:36.265Z,25.63
2019-06-07T16:41:07.513Z,25.55
2019-06-07T16:43:38.547Z,25.40
2019-06-07T16:46:09.580Z,25.42
2019-06-07T16:48:40.929Z,25.43
2019-06-07T16:51:12.731Z,25.17
2019-06-07T16:53:44.537Z,25.27
2019-06-07T16:56:18.741Z,25.29
2019-06-07T16:58:49.421Z,25.34
2019-06-07T17:01:20.153Z,25.33
2019-06-07T17:03:51.043Z,25.14
2019-06-07T17:06:21.634Z,24.87
2019-06-07T17:08:52.296Z,24.68
2019-06-07T17:11:24.685Z,24.48
2019-06-07T17:13:55.357Z,24.03
2019-06-07T17:16:26.421Z,23.82
2019-06-07T17:18:57.458Z,23.54
2019-06-07T17:21:28.377Z,23.45
2019-06-07T17:23:59.141Z,23.45
2019-06-07T17:26:30.610Z,23.47
2019-06-07T17:29:01.965Z,23.32
2019-06-07T17:31:32.867Z,23.26
2019-06-07T17:34:03.814Z,23.12
2019-06-07T17:36:35.197Z,23.15
2019-06-07T17:39:07.482Z,23.14
2019-06-07T17:41:52.425Z,23.11
2019-06-07T17:44:11.068Z,23.16
2019-06-07T17:46:43.357Z,23.15
2019-06-07T17:49:14.218Z,23.12
2019-06-07T17:51:45.891Z,23.04
2019-06-07T17:54:16.934Z,22.75
2019-06-07T17:56:48.279Z,22.60
2019-06-07T17:59:19.219Z,22.53
2019-06-07T18:02:11.163Z,22.52
2019-06-07T18:04:22.694Z,22.60
2019-06-07T18:06:54.253Z,22.56
2019-06-07T18:09:27.114Z,22.49
2019-06-07T18:11:57.929Z,22.42
2019-06-07T18:14:29.030Z,22.52
2019-06-07T18:16:59.800Z,22.56
2019-06-07T18:19:30.402Z,22.58
2019-06-07T18:22:01.250Z,22.56
2019-06-07T18:24:31.798Z,22.46
2019-06-07T18:27:02.520Z,22.48
2019-06-07T18:29:33.463Z,22.51
2019-06-07T18:32:04.024Z,22.49
2019-06-07T18:34:35.900Z,22.49
2019-06-07T18:37:06.507Z,22.44
2019-06-07T18:39:37.137Z,22.46
2019-06-07T18:42:07.834Z,22.45
2019-06-07T18:44:38.492Z,22.56
2019-06-07T18:47:09.241Z,22.56
2019-06-07T18:49:39.971Z,22.53
2019-06-07T18:52:19.242Z,22.50
2019-06-07T18:54:51.123Z,22.44
2019-06-07T18:57:23.280Z,22.45
2019-06-07T18:59:54.598Z,22.47
2019-06-07T19:02:25.724Z,22.48
2019-06-07T19:04:56.477Z,22.47
2019-06-07T19:07:27.459Z,22.46
2019-06-07T19:09:59.416Z,22.47
2019-06-07T19:12:30.386Z,22.39
2019-06-07T19:15:01.288Z,22.37
2019-06-07T19:17:31.972Z,22.34
2019-06-07T19:20:02.944Z,22.38
2019-06-07T19:22:33.797Z,22.42
2019-06-07T19:25:05.289Z,22.44
2019-06-07T19:27:36.225Z,22.40
2019-06-07T19:30:09.601Z,22.36
2019-06-07T19:32:40.471Z,22.26
2019-06-07T19:35:11.912Z,22.24
2019-06-07T19:37:42.929Z,22.25
2019-06-07T19:40:14.906Z,22.25
2019-06-07T19:42:45.616Z,22.17
2019-06-07T19:45:29.584Z,22.18
2019-06-07T19:47:49.440Z,22.16
2019-06-07T19:50:20.533Z,22.11
2019-06-07T19:52:51.356Z,22.14
2019-06-07T19:55:24.369Z,22.19
2019-06-07T19:57:55.690Z,22.15
2019-06-07T20:00:26.490Z,22.21
2019-06-07T20:02:57.832Z,22.27
2019-06-07T20:05:33.591Z,22.20
2019-06-07T20:08:02.861Z,22.17
2019-06-07T20:10:33.606Z,22.09
2019-06-07T20:13:05.167Z,22.08
2019-06-07T20:15:36.236Z,22.05
2019-06-07T20:18:07.678Z,22.00
2019-06-07T20:20:38.656Z,22.09
2019-06-07T20:23:09.617Z,22.18
2019-06-07T20:25:40.411Z,22.28
2019-06-07T20:28:11.150Z,22.33
2019-06-07T20:30:42.640Z,22.32
2019-06-07T20:33:13.376Z,22.30
2019-06-07T20:35:44.106Z,22.29
2019-06-07T20:38:14.989Z,22.22
2019-06-07T20:40:45.564Z,22.19
2019-06-07T20:43:16.416Z,22.15
2019-06-07T20:45:48.271Z,22.07
2019-06-07T20:48:20.165Z,21.95
2019-06-07T20:50:50.744Z,21.94
2019-06-07T20:53:21.622Z,21.99
2019-06-07T20:55:53.206Z,22.03
2019-06-07T20:58:24.578Z,21.99
2019-06-07T21:00:55.320Z,22.03
2019-06-07T21:03:26.307Z,22.11
2019-06-07T21:05:57.299Z,22.12
2019-06-07T21:08:28.092Z,22.14
2019-06-07T21:10:59.948Z,22.18
2019-06-07T21:13:32.163Z,22.18
2019-06-07T21:16:04.071Z,22.15
2019-06-07T21:18:34.806Z,22.17
2019-06-07T21:21:06.448Z,22.07
2019-06-07T21:23:37.337Z,22.12
2019-06-07T21:26:09.063Z,22.07
2019-06-07T21:28:40.126Z,22.01
2019-06-07T21:31:12.352Z,21.99
2019-06-07T21:33:43.137Z,21.92
2019-06-07T21:36:13.953Z,21.95
2019-06-07T21:38:44.744Z,21.98
2019-06-07T21:41:15.390Z,21.96
2019-06-07T21:43:46.067Z,21.96
2019-06-07T21:46:20.401Z,21.94
2019-06-07T21:48:49.416Z,21.98
2019-06-07T21:51:20.170Z,21.96
2019-06-07T21:53:50.845Z,21.94
2019-06-07T21:56:22.868Z,21.95
2019-06-07T21:58:53.910Z,21.96
2019-06-07T22:01:27.547Z,21.97
2019-06-07T22:03:58.196Z,21.98
2019-06-07T22:06:28.614Z,21.95
2019-06-07T22:08:59.360Z,21.97
2019-06-07T22:11:29.938Z,22.04
2019-06-07T22:14:00.777Z,22.07
2019-06-07T22:16:31.421Z,22.04
2019-06-07T22:19:02.186Z,22.10
2019-06-07T22:21:33.084Z,22.12
2019-06-07T22:24:04.812Z,22.11
2019-06-07T22:26:35.599Z,22.12
2019-06-07T22:29:08.153Z,22.16
2019-06-07T22:31:39.204Z,22.18
2019-06-07T22:34:10.706Z,22.16
2019-06-07T22:36:41.492Z,22.13
2019-06-07T22:39:13.802Z,22.17
2019-06-07T22:41:44.672Z,22.19
2019-06-07T22:44:15.575Z,22.22
2019-06-07T22:46:46.248Z,22.27
2019-06-07T22:49:16.984Z,22.24
2019-06-07T22:51:47.758Z,22.21
2019-06-07T22:54:18.479Z,22.22
2019-06-07T22:57:08.021Z,22.18
2019-06-07T22:59:38.902Z,22.18
2019-06-07T23:02:10.409Z,22.13
2019-06-07T23:04:41.166Z,22.18
2019-06-07T23:07:12.941Z,22.15
2019-06-07T23:09:43.967Z,22.16
2019-06-07T23:12:15.306Z,22.12
2019-06-07T23:14:46.621Z,22.13
2019-06-07T23:17:20.590Z,22.10
2019-06-07T23:19:51.592Z,22.15
2019-06-07T23:22:22.467Z,22.13
2019-06-07T23:24:53.309Z,22.13
2019-06-07T23:27:24.279Z,22.18
2019-06-07T23:29:55.202Z,22.16
2019-06-07T23:32:26.542Z,22.16
2019-06-07T23:34:57.567Z,22.17
2019-06-07T23:37:28.457Z,22.21
2019-06-07T23:39:59.433Z,22.23
2019-06-07T23:42:30.668Z,22.26
2019-06-07T23:45:01.364Z,22.28
2019-06-07T23:47:32.263Z,22.23
2019-06-07T23:50:06.175Z,22.25
2019-06-07T23:52:36.788Z,22.24
2019-06-07T23:55:07.749Z,22.25
2019-06-07T23:57:38.624Z,22.25
